Juneau, AK

2:56 AM AKDT on September 25, 2016 (GMT -0800)
Juneau International | | Change Station

Elev 23 ft 58.35 °N, 134.58 °W | Updated 3 minutes ago

Overcast
Overcast
48 °F
Feels Like 48 °F
N
9
Wind Variable Wind from East

Today
High -- | Low -- °F
--% Chance of Precip.
Yesterday
High -- | Low -- °F
Precip. -- in
Pressure 30.00 in
Visibility 10.0 miles
Clouds Few 900 ft
Mostly Cloudy 3700 ft
Overcast 5000 ft
Dew Point 44 °F
Humidity 86%
Rainfall 0.02 in
Snow Depth Not available.
6:51 AM 6:47 PM
Waning Crescent, 29% visible
METAR PAJN 251053Z 09008KT 10SM FEW009 BKN037 OVC050 09/07 A3000 RMK AO2 SLP159 T00890067 $
Pressure 30.00 in
Visibility 10.0 miles
Clouds Few 900 ft
Mostly Cloudy 3700 ft
Overcast 5000 ft
Dew Point 44 °F
Humidity 86%
Rainfall 0.02 in
Snow Depth Not available.
6:51 AM 6:47 PM
Waning Crescent, 29% visible
METAR PAJN 251053Z 09008KT 10SM FEW009 BKN037 OVC050 09/07 A3000 RMK AO2 SLP159 T00890067 $

10-Day Weather Forecast

Almanac

Astronomy

Sep. 25, 2016 Rise Set
Actual Time
Civil Twilight
Nautical Twilight
Astronomical Twilight
Moon
Length of Visible Light
Length of Day
Tomorrow will be .
, % of the Moon is Illuminated

Today's Extremes

State Highs State Lows

Community

WunderPhotos

Upload Photos

1,941,570 photos uploaded!

WunderBlog® & News

Nearby

Air Quality

  Air Quality AQ Index Pollutant
Not available.

Snow Depth

Station Depth Elevation

Earthquake Activity

City Distance Mag. Time & Date
Minimum magnitude displayed is 2.5.

Coastal Water Temperatures

Place Temperature

Stations

Nearby Weather Stations

Station Location Temp. Windchill Dew Point Humidity Wind Precip. Elev Updated Type
                   

Watches & Warnings

There are currently no watches in effect.